createdAt,value
2018-07-02T00:00:42.094Z,41.53
2018-07-02T00:03:10.689Z,41.65
2018-07-02T00:06:50.321Z,41.49
2018-07-02T00:09:18.908Z,40.73
2018-07-02T00:11:47.464Z,40.83
2018-07-02T00:14:16.040Z,39.92
2018-07-02T00:16:44.577Z,39.96
2018-07-02T00:19:13.159Z,40.21
2018-07-02T00:21:41.699Z,40.73
2018-07-02T00:24:10.285Z,40.46
2018-07-02T00:26:38.820Z,40.85
2018-07-02T00:29:07.532Z,40.61
2018-07-02T00:31:37.226Z,40.91
2018-07-02T00:34:05.946Z,41.08
2018-07-02T00:36:34.801Z,40.51
2018-07-02T00:39:03.973Z,40.77
2018-07-02T00:41:32.529Z,41.12
2018-07-02T00:44:01.121Z,41.25
2018-07-02T00:46:29.670Z,41.17
2018-07-02T00:48:58.487Z,40.62
2018-07-02T00:51:27.053Z,40.35
2018-07-02T00:53:55.710Z,40.97
2018-07-02T00:56:24.808Z,41.75
2018-07-02T00:58:53.392Z,41.48
2018-07-02T01:01:22.301Z,41.96
2018-07-02T01:03:51.090Z,41.68
2018-07-02T01:06:19.641Z,41.48
2018-07-02T01:08:48.269Z,41.42
2018-07-02T01:11:16.832Z,41.95
2018-07-02T01:13:45.388Z,41.36
2018-07-02T01:16:13.989Z,42.34
2018-07-02T01:18:42.540Z,41.41
2018-07-02T01:21:11.136Z,41.40
2018-07-02T01:23:39.772Z,42.48
2018-07-02T01:26:08.643Z,42.18
2018-07-02T01:28:37.476Z,41.91
2018-07-02T01:31:06.444Z,42.10
2018-07-02T01:33:35.191Z,41.36
2018-07-02T01:36:04.010Z,41.85
2018-07-02T01:38:33.276Z,42.29
2018-07-02T01:41:01.921Z,42.27
2018-07-02T01:43:32.020Z,42.31
2018-07-02T01:46:00.608Z,41.64
2018-07-02T01:48:29.208Z,41.48
2018-07-02T01:50:58.217Z,42.02
2018-07-02T01:53:27.321Z,41.70
2018-07-02T01:55:56.224Z,41.89
2018-07-02T01:58:25.017Z,42.08
2018-07-02T02:00:53.964Z,41.84
2018-07-02T02:03:23.401Z,41.92
2018-07-02T02:05:53.944Z,41.98
2018-07-02T02:08:22.718Z,42.92
2018-07-02T02:10:51.316Z,42.60
2018-07-02T02:13:19.860Z,42.77
2018-07-02T02:15:48.424Z,42.11
2018-07-02T02:18:16.968Z,42.55
2018-07-02T02:20:45.511Z,43.14
2018-07-02T02:23:14.079Z,42.56
2018-07-02T02:25:42.640Z,43.12
2018-07-02T02:28:11.169Z,43.19
2018-07-02T02:30:39.704Z,42.88
2018-07-02T02:33:08.229Z,43.33
2018-07-02T02:35:37.720Z,43.76
2018-07-02T02:38:06.524Z,43.59
2018-07-02T02:40:35.098Z,43.80
2018-07-02T02:43:03.641Z,44.03
2018-07-02T02:45:32.176Z,44.02
2018-07-02T02:48:00.737Z,44.15
2018-07-02T02:50:29.267Z,43.93
2018-07-02T02:52:57.844Z,43.92
2018-07-02T02:55:26.352Z,44.37
2018-07-02T02:57:54.906Z,44.88
2018-07-02T03:00:23.440Z,45.14
2018-07-02T03:02:51.982Z,44.78
2018-07-02T03:05:20.514Z,44.63
2018-07-02T03:07:49.068Z,44.38
2018-07-02T03:10:17.636Z,44.67
2018-07-02T03:12:46.205Z,44.79
2018-07-02T03:15:14.741Z,44.48
2018-07-02T03:17:43.305Z,44.32
2018-07-02T03:20:11.876Z,44.70
2018-07-02T03:22:40.741Z,45.34
2018-07-02T03:25:09.314Z,45.46
2018-07-02T03:27:37.972Z,45.84
2018-07-02T03:30:06.716Z,44.96
2018-07-02T03:32:35.272Z,46.03
2018-07-02T03:35:03.937Z,45.25
2018-07-02T03:37:32.508Z,46.03
2018-07-02T03:40:01.032Z,45.31
2018-07-02T03:42:29.619Z,45.23
2018-07-02T03:44:58.169Z,46.60
2018-07-02T03:47:26.757Z,46.26
2018-07-02T03:49:55.278Z,46.63
2018-07-02T03:52:23.930Z,46.29
2018-07-02T03:54:52.472Z,46.18
2018-07-02T03:57:21.044Z,46.70
2018-07-02T03:59:49.679Z,46.49
2018-07-02T04:02:18.216Z,46.28
2018-07-02T04:04:46.796Z,47.42
2018-07-02T04:07:15.341Z,47.36
2018-07-02T04:09:44.397Z,48.37
2018-07-02T04:12:12.980Z,46.89
2018-07-02T04:14:41.524Z,47.35
2018-07-02T04:17:10.065Z,47.10
2018-07-02T04:19:38.669Z,46.33
2018-07-02T04:22:08.109Z,47.31
2018-07-02T04:24:36.683Z,47.02
2018-07-02T04:27:05.706Z,48.28
2018-07-02T04:29:34.293Z,47.43
2018-07-02T04:32:02.904Z,47.68
2018-07-02T04:34:31.464Z,46.95
2018-07-02T04:36:59.996Z,46.87
2018-07-02T04:39:29.281Z,46.52
2018-07-02T04:41:57.901Z,46.80
2018-07-02T04:44:26.468Z,47.27
2018-07-02T04:46:55.048Z,47.32
2018-07-02T04:49:23.621Z,45.88
2018-07-02T04:51:52.141Z,46.92
2018-07-02T04:54:20.716Z,47.09
2018-07-02T04:56:50.036Z,46.30
2018-07-02T04:59:18.960Z,46.87
2018-07-02T05:01:47.505Z,46.59
2018-07-02T05:04:16.344Z,47.68
2018-07-02T05:06:44.857Z,46.91
2018-07-02T05:09:13.620Z,47.69
2018-07-02T05:11:42.137Z,48.33
2018-07-02T05:14:10.684Z,47.70
2018-07-02T05:16:39.245Z,46.85
2018-07-02T05:19:08.453Z,46.76
2018-07-02T05:21:36.988Z,46.89
2018-07-02T05:24:05.521Z,47.66
2018-07-02T05:26:34.076Z,47.29
2018-07-02T05:29:02.648Z,47.25
2018-07-02T05:31:31.294Z,47.04
2018-07-02T05:34:00.212Z,47.16
2018-07-02T05:36:28.776Z,46.82
2018-07-02T05:38:57.303Z,46.74
2018-07-02T05:41:25.911Z,46.41
2018-07-02T05:43:54.411Z,46.85
2018-07-02T05:46:23.323Z,46.71
2018-07-02T05:48:56.384Z,46.45
2018-07-02T05:51:24.948Z,47.39
2018-07-02T05:53:53.461Z,47.37
2018-07-02T05:56:22.053Z,47.08
2018-07-02T05:58:50.611Z,47.10
2018-07-02T06:01:19.320Z,46.41
2018-07-02T06:03:48.056Z,46.63
2018-07-02T06:06:16.980Z,46.03
2018-07-02T06:08:45.545Z,46.97
2018-07-02T06:11:14.088Z,45.54
2018-07-02T06:13:42.588Z,46.34
2018-07-02T06:16:11.265Z,46.08
2018-07-02T06:18:39.765Z,46.66
2018-07-02T06:21:10.829Z,46.24
2018-07-02T06:23:39.371Z,46.34
2018-07-02T06:26:07.896Z,47.56
2018-07-02T06:28:36.396Z,46.66
2018-07-02T06:31:05.301Z,46.68
2018-07-02T06:33:36.669Z,45.96
2018-07-02T06:36:05.226Z,45.70
2018-07-02T06:38:33.708Z,45.97
2018-07-02T06:41:02.480Z,45.60
2018-07-02T06:43:31.848Z,46.33
2018-07-02T06:46:00.417Z,45.49
2018-07-02T06:48:28.960Z,45.37
2018-07-02T06:50:57.461Z,45.55
2018-07-02T06:53:25.992Z,44.74
2018-07-02T06:55:54.529Z,44.65
2018-07-02T06:58:23.030Z,44.60
2018-07-02T07:00:51.577Z,45.41
2018-07-02T07:03:20.086Z,44.98
2018-07-02T07:05:48.634Z,44.77
2018-07-02T07:08:17.272Z,44.72
2018-07-02T07:10:45.985Z,43.50
2018-07-02T07:13:17.799Z,44.95
2018-07-02T07:15:47.069Z,43.88
2018-07-02T07:18:16.129Z,43.42
2018-07-02T07:20:44.725Z,43.62
2018-07-02T07:23:14.559Z,43.64
2018-07-02T07:25:43.220Z,43.50
2018-07-02T07:28:11.728Z,42.91
2018-07-02T07:30:40.349Z,44.63
2018-07-02T07:33:08.890Z,43.54
2018-07-02T07:35:37.417Z,44.49
2018-07-02T07:38:06.008Z,43.09
2018-07-02T07:40:35.259Z,43.27
2018-07-02T07:43:05.820Z,43.58
2018-07-02T07:45:34.423Z,43.23
2018-07-02T07:48:03.588Z,43.80
2018-07-02T07:50:32.140Z,42.79
2018-07-02T07:53:02.440Z,42.25
2018-07-02T07:55:31.060Z,42.53
2018-07-02T07:58:00.418Z,43.46
2018-07-02T08:00:30.216Z,41.91
2018-07-02T08:02:59.060Z,42.06
2018-07-02T08:05:29.288Z,42.12
2018-07-02T08:07:57.850Z,42.03
2018-07-02T08:10:26.450Z,41.86
2018-07-02T08:12:54.993Z,41.34
2018-07-02T08:15:23.500Z,41.52
2018-07-02T08:17:52.380Z,41.84
2018-07-02T08:20:20.882Z,41.70
2018-07-02T08:22:50.848Z,42.34
2018-07-02T08:25:19.433Z,40.72
2018-07-02T08:27:48.278Z,42.32
2018-07-02T08:30:16.891Z,41.64
2018-07-02T08:32:45.430Z,41.65
2018-07-02T08:35:19.205Z,40.08
2018-07-02T08:37:52.262Z,40.67
2018-07-02T08:40:28.648Z,41.44
2018-07-02T08:43:00.707Z,41.04
2018-07-02T08:45:33.894Z,40.58
2018-07-02T08:48:04.827Z,40.06
2018-07-02T08:50:35.998Z,41.29
2018-07-02T08:53:06.071Z,41.60
2018-07-02T08:55:39.679Z,38.97
2018-07-02T08:58:08.378Z,40.05
2018-07-02T09:00:42.951Z,40.29
2018-07-02T09:03:17.243Z,40.78
2018-07-02T09:05:51.643Z,39.80
2018-07-02T09:08:20.934Z,38.75
2018-07-02T09:10:55.976Z,39.26
2018-07-02T09:13:29.613Z,39.52
2018-07-02T09:16:00.158Z,38.44
2018-07-02T09:18:30.209Z,38.10
2018-07-02T09:21:08.092Z,39.19
2018-07-02T09:23:41.653Z,38.30
2018-07-02T09:32:17.327Z,38.10
2018-07-02T09:34:49.190Z,37.47
2018-07-02T09:37:24.066Z,38.47
2018-07-02T09:39:52.736Z,37.37
2018-07-02T09:42:25.143Z,38.01
2018-07-02T09:44:58.683Z,37.11
2018-07-02T09:47:28.284Z,37.91
2018-07-02T09:49:57.437Z,38.01
2018-07-02T09:52:29.884Z,38.53
2018-07-02T09:55:01.920Z,37.58
2018-07-02T09:57:33.192Z,38.01
2018-07-02T10:00:02.165Z,36.83
2018-07-02T10:02:35.109Z,36.88
2018-07-02T10:05:08.425Z,37.18
2018-07-02T10:07:39.168Z,36.29
2018-07-02T10:10:10.990Z,37.71
2018-07-02T10:12:40.344Z,36.86
2018-07-02T10:15:14.730Z,37.59
2018-07-02T10:17:46.511Z,35.44
2018-07-02T10:20:17.692Z,37.05
2018-07-02T10:22:46.185Z,37.11
2018-07-02T10:25:14.729Z,36.14
2018-07-02T10:27:43.230Z,36.02
2018-07-02T10:30:11.793Z,36.19
2018-07-02T10:32:42.075Z,36.10
2018-07-02T10:35:15.340Z,38.90
2018-07-02T10:37:47.837Z,37.89
2018-07-02T10:40:18.076Z,36.20
2018-07-02T10:42:48.724Z,36.93
2018-07-02T10:45:19.778Z,35.97
2018-07-02T10:47:53.058Z,35.41
2018-07-02T10:50:25.122Z,35.19
2018-07-02T10:52:56.299Z,35.42
2018-07-02T10:55:25.280Z,36.16
2018-07-02T10:57:56.923Z,35.71
2018-07-02T11:00:25.664Z,36.16
2018-07-02T11:02:55.257Z,37.13
2018-07-02T11:05:23.876Z,35.91
2018-07-02T11:07:53.240Z,35.30
2018-07-02T11:10:22.355Z,36.36
2018-07-02T11:12:51.249Z,36.16
2018-07-02T11:15:26.223Z,35.03
2018-07-02T11:17:59.093Z,34.76
2018-07-02T11:20:31.097Z,36.50
2018-07-02T11:23:04.002Z,35.31
2018-07-02T11:25:34.251Z,34.32
2018-07-02T11:28:05.869Z,34.36
2018-07-02T11:30:35.576Z,34.76
2018-07-02T11:33:04.213Z,34.85
2018-07-02T11:35:32.745Z,34.43
2018-07-02T11:38:01.237Z,34.04
2018-07-02T11:40:29.989Z,34.35
2018-07-02T11:42:58.491Z,36.13
2018-07-02T11:45:27.069Z,34.60
2018-07-02T11:47:55.566Z,33.85
2018-07-02T11:50:24.147Z,32.20
2018-07-02T11:52:52.644Z,33.87
2018-07-02T11:55:21.204Z,33.52
2018-07-02T11:57:49.729Z,34.17
2018-07-02T12:00:18.372Z,32.83
2018-07-02T12:02:46.871Z,31.95
2018-07-02T12:05:15.412Z,32.29
2018-07-02T12:07:43.923Z,32.06
2018-07-02T12:10:12.484Z,30.57
2018-07-02T12:12:41.475Z,30.26
2018-07-02T12:15:10.011Z,30.62
2018-07-02T12:17:38.517Z,33.07
2018-07-02T12:20:07.045Z,31.37
2018-07-02T12:22:35.573Z,31.38
2018-07-02T12:25:04.448Z,32.50
2018-07-02T12:27:33.561Z,30.13
2018-07-02T12:30:06.250Z,32.85
2018-07-02T12:32:34.738Z,31.27
2018-07-02T12:35:03.673Z,33.40
2018-07-02T12:37:32.161Z,31.67
2018-07-02T12:40:00.973Z,32.50
2018-07-02T12:42:29.482Z,31.05
2018-07-02T12:44:58.026Z,29.95
2018-07-02T12:47:26.513Z,30.94
2018-07-02T12:49:55.007Z,29.89
2018-07-02T12:52:23.570Z,32.05
2018-07-02T12:54:52.058Z,31.40
2018-07-02T12:57:20.594Z,30.71
2018-07-02T12:59:49.265Z,31.20
2018-07-02T13:02:17.855Z,31.11
2018-07-02T13:04:46.345Z,29.94
2018-07-02T13:07:15.084Z,29.92
2018-07-02T13:09:43.737Z,30.03
2018-07-02T13:12:12.285Z,29.52
2018-07-02T13:14:41.967Z,29.95
2018-07-02T13:17:10.887Z,29.52
2018-07-02T13:19:39.548Z,30.84
2018-07-02T13:22:08.416Z,30.71
2018-07-02T13:24:41.678Z,31.31
2018-07-02T13:27:10.357Z,29.24
2018-07-02T13:29:38.881Z,32.25
2018-07-02T13:32:07.508Z,31.37
2018-07-02T13:34:36.033Z,33.72
2018-07-02T13:37:04.617Z,30.33
2018-07-02T13:39:33.280Z,30.58
2018-07-02T13:42:01.813Z,30.01
2018-07-02T13:44:30.320Z,29.63
2018-07-02T13:46:59.957Z,30.08
2018-07-02T13:49:28.504Z,31.69
2018-07-02T13:51:57.064Z,32.07
2018-07-02T13:54:25.816Z,30.85
2018-07-02T13:56:54.377Z,31.65
2018-07-02T13:59:22.953Z,30.38
2018-07-02T14:01:51.528Z,29.94
2018-07-02T14:04:20.040Z,32.17
2018-07-02T14:06:48.599Z,31.41
2018-07-02T14:09:17.985Z,31.55
2018-07-02T14:11:46.571Z,31.20
2018-07-02T14:14:15.106Z,28.83
2018-07-02T14:16:43.854Z,29.17
2018-07-02T14:19:12.363Z,29.22
2018-07-02T14:21:40.904Z,31.36
2018-07-02T14:24:11.626Z,29.51
2018-07-02T14:26:40.265Z,28.18
2018-07-02T14:29:08.762Z,28.79
2018-07-02T14:31:37.296Z,29.05
2018-07-02T14:34:05.821Z,30.14
2018-07-02T14:36:34.350Z,30.99
2018-07-02T14:39:03.075Z,29.38
2018-07-02T14:41:31.620Z,30.32
2018-07-02T14:44:00.121Z,29.19
2018-07-02T14:46:28.659Z,29.79
2018-07-02T14:48:57.148Z,30.21
2018-07-02T14:51:25.641Z,30.30
2018-07-02T14:53:54.181Z,29.57
2018-07-02T14:56:22.697Z,31.09
2018-07-02T14:58:51.312Z,31.47
2018-07-02T15:01:19.804Z,29.86
2018-07-02T15:03:48.588Z,29.06
2018-07-02T15:06:17.104Z,29.18
2018-07-02T15:08:45.636Z,29.87
2018-07-02T15:11:15.238Z,28.50
2018-07-02T15:13:43.780Z,28.31
2018-07-02T15:16:12.357Z,28.20
2018-07-02T15:18:40.921Z,26.87
2018-07-02T15:21:09.434Z,27.76
2018-07-02T15:23:38.317Z,28.47
2018-07-02T15:26:06.840Z,28.12
2018-07-02T15:28:35.388Z,26.49
2018-07-02T15:31:03.908Z,27.13
2018-07-02T15:33:32.468Z,26.43
2018-07-02T15:36:01.268Z,26.73
2018-07-02T15:38:29.827Z,27.95
2018-07-02T15:40:58.384Z,26.08
2018-07-02T15:43:26.936Z,26.91
2018-07-02T15:45:55.457Z,27.23
2018-07-02T15:48:24.013Z,27.85
2018-07-02T15:50:53.775Z,25.70
2018-07-02T15:53:22.330Z,26.37
2018-07-02T15:55:50.853Z,26.89
2018-07-02T15:58:19.396Z,26.48
2018-07-02T16:00:47.974Z,26.87
2018-07-02T16:03:16.749Z,26.15
2018-07-02T16:05:46.111Z,25.97
2018-07-02T16:08:18.238Z,26.84
2018-07-02T16:10:46.863Z,25.90
2018-07-02T16:13:15.645Z,25.40
2018-07-02T16:15:44.165Z,26.56
2018-07-02T16:18:12.741Z,25.74
2018-07-02T16:20:41.273Z,25.91
2018-07-02T16:23:10.100Z,26.16
2018-07-02T16:25:42.682Z,24.88
2018-07-02T16:28:11.945Z,25.75
2018-07-02T16:30:40.494Z,25.18
2018-07-02T16:33:09.137Z,26.07
2018-07-02T16:35:37.967Z,25.71
2018-07-02T16:38:07.193Z,26.60
2018-07-02T16:40:36.021Z,26.37
2018-07-02T16:43:04.945Z,25.22
2018-07-02T16:45:33.501Z,27.08
2018-07-02T16:48:02.108Z,23.21
2018-07-02T16:50:30.956Z,19.62
2018-07-02T16:52:59.537Z,18.47
2018-07-02T16:55:28.129Z,17.27
2018-07-02T16:57:57.224Z,17.96
2018-07-02T17:00:25.902Z,17.17
2018-07-02T17:02:54.482Z,17.28
2018-07-02T17:05:23.104Z,16.37
2018-07-02T17:07:51.816Z,17.26
2018-07-02T17:10:20.585Z,17.02
2018-07-02T17:12:49.348Z,18.06
2018-07-02T17:15:19.538Z,16.49
2018-07-02T17:17:48.064Z,15.99
2018-07-02T17:20:16.632Z,16.89
2018-07-02T17:22:45.230Z,17.99
2018-07-02T17:25:14.365Z,15.88
2018-07-02T17:27:43.101Z,16.14
2018-07-02T17:30:14.289Z,16.41
2018-07-02T17:32:42.888Z,15.70
2018-07-02T17:35:12.140Z,17.97
2018-07-02T17:37:41.412Z,14.93
2018-07-02T17:40:10.225Z,16.89
2018-07-02T17:42:39.098Z,16.33
2018-07-02T17:45:07.668Z,15.73
2018-07-02T17:47:36.254Z,16.40
2018-07-02T17:50:05.032Z,16.51
2018-07-02T17:52:33.560Z,18.20
2018-07-02T17:55:02.089Z,18.85
2018-07-02T17:57:30.608Z,19.34
2018-07-02T18:00:00.769Z,19.78
2018-07-02T18:02:29.291Z,19.94
2018-07-02T18:04:57.821Z,19.45
2018-07-02T18:07:26.322Z,20.62
2018-07-02T18:09:54.935Z,20.93
2018-07-02T18:12:25.938Z,21.79
2018-07-02T18:14:56.237Z,22.50
2018-07-02T18:17:25.097Z,23.94
2018-07-02T18:19:53.644Z,23.87
2018-07-02T18:22:27.764Z,23.15
2018-07-02T18:24:56.607Z,23.62
2018-07-02T18:27:28.372Z,25.64
2018-07-02T18:29:56.993Z,25.14
2018-07-02T18:32:25.594Z,25.02
2018-07-02T18:34:54.580Z,25.52
2018-07-02T18:37:24.652Z,25.29
2018-07-02T18:39:53.844Z,26.90
2018-07-02T18:42:22.372Z,26.83
2018-07-02T18:44:52.261Z,25.74
2018-07-02T18:47:21.125Z,26.69
2018-07-02T18:49:51.711Z,28.17
2018-07-02T18:52:21.204Z,28.47
2018-07-02T18:54:50.751Z,30.53
2018-07-02T18:57:19.345Z,29.82
2018-07-02T18:59:48.642Z,29.96
2018-07-02T19:02:19.199Z,30.11
2018-07-02T19:04:51.941Z,30.49
2018-07-02T19:07:21.905Z,31.62
2018-07-02T19:09:57.600Z,30.65
2018-07-02T19:12:26.887Z,32.38
2018-07-02T19:14:55.601Z,33.05
2018-07-02T19:17:24.436Z,32.91
2018-07-02T19:19:53.496Z,35.34
2018-07-02T19:22:23.482Z,34.72
2018-07-02T19:24:53.677Z,35.06
2018-07-02T19:27:23.578Z,35.22
2018-07-02T19:29:53.688Z,35.81
2018-07-02T19:32:23.151Z,36.87
2018-07-02T19:34:52.002Z,36.50
2018-07-02T19:37:21.772Z,37.01
2018-07-02T19:39:51.352Z,40.58
2018-07-02T19:42:20.848Z,39.40
2018-07-02T19:44:50.620Z,39.33
2018-07-02T19:47:20.555Z,39.86
2018-07-02T19:49:50.416Z,41.35
2018-07-02T19:52:20.385Z,41.52
2018-07-02T19:54:50.823Z,42.64
2018-07-02T19:57:20.386Z,43.40
2018-07-02T19:59:54.676Z,42.16
2018-07-02T20:02:25.129Z,42.75
2018-07-02T20:04:55.459Z,41.68
2018-07-02T20:07:24.787Z,42.80
2018-07-02T20:09:53.373Z,42.51
2018-07-02T20:12:23.224Z,44.35
2018-07-02T20:14:54.433Z,43.60
2018-07-02T20:17:24.134Z,42.66
2018-07-02T20:19:52.989Z,43.50
2018-07-02T20:22:21.559Z,45.34
2018-07-02T20:24:50.045Z,43.81
2018-07-02T20:27:18.602Z,44.46
2018-07-02T20:29:48.705Z,44.70
2018-07-02T20:32:17.988Z,44.43
2018-07-02T20:34:46.761Z,45.69
2018-07-02T20:37:15.416Z,44.69
2018-07-02T20:39:43.929Z,46.70
2018-07-02T20:42:12.482Z,46.40
2018-07-02T20:44:40.995Z,47.37
2018-07-02T20:47:10.221Z,46.58
2018-07-02T20:49:44.476Z,47.01
2018-07-02T20:52:18.598Z,47.43
2018-07-02T20:54:53.261Z,47.76
2018-07-02T20:57:23.773Z,46.71
2018-07-02T20:59:54.210Z,46.94
2018-07-02T21:02:23.230Z,46.42
2018-07-02T21:04:51.724Z,46.69
2018-07-02T21:07:20.265Z,47.24
2018-07-02T21:09:48.860Z,48.82
2018-07-02T21:12:17.369Z,50.63
2018-07-02T21:14:48.643Z,51.02
2018-07-02T21:17:17.240Z,52.90
2018-07-02T21:19:46.418Z,52.07
2018-07-02T21:22:14.995Z,50.54
2018-07-02T21:24:44.238Z,50.09
2018-07-02T21:27:12.860Z,50.90
2018-07-02T21:29:41.401Z,52.25
2018-07-02T21:32:09.962Z,52.99
2018-07-02T21:34:38.552Z,51.60
2018-07-02T21:37:11.675Z,51.29
2018-07-02T21:39:42.379Z,51.95
2018-07-02T21:42:11.859Z,52.51
2018-07-02T21:44:42.178Z,52.37
2018-07-02T21:47:12.878Z,51.08
2018-07-02T21:49:44.242Z,51.12
2018-07-02T21:52:12.840Z,49.93
2018-07-02T21:54:42.782Z,50.88
2018-07-02T21:57:11.552Z,51.58
2018-07-02T21:59:40.823Z,51.07
2018-07-02T22:02:12.185Z,50.81
2018-07-02T22:04:49.343Z,51.79
2018-07-02T22:07:18.113Z,52.86
2018-07-02T22:09:47.698Z,52.68
2018-07-02T22:12:18.608Z,53.71
2018-07-02T22:14:50.863Z,54.20
2018-07-02T22:17:24.315Z,53.77
2018-07-02T22:19:55.826Z,54.24
2018-07-02T22:22:30.245Z,54.03
2018-07-02T22:25:01.106Z,54.69
2018-07-02T22:27:30.892Z,54.92
2018-07-02T22:30:00.321Z,55.21
2018-07-02T22:32:30.901Z,55.17
2018-07-02T22:35:04.328Z,55.33
2018-07-02T22:37:37.230Z,58.55
2018-07-02T22:40:08.351Z,56.09
2018-07-02T22:42:39.301Z,57.28
2018-07-02T22:45:08.802Z,57.21
2018-07-02T22:47:39.801Z,56.05
2018-07-02T22:50:11.562Z,56.05
2018-07-02T22:52:43.162Z,56.41
2018-07-02T22:55:14.027Z,56.27
2018-07-02T22:57:42.748Z,55.17
2018-07-02T23:00:11.280Z,55.52
2018-07-02T23:02:43.360Z,56.31
2018-07-02T23:05:14.830Z,56.38
2018-07-02T23:07:47.407Z,56.51
2018-07-02T23:10:20.514Z,56.87
2018-07-02T23:12:51.191Z,56.51
2018-07-02T23:15:23.697Z,55.42
2018-07-02T23:17:53.969Z,59.94
2018-07-02T23:20:23.189Z,57.95
2018-07-02T23:23:03.404Z,56.40
2018-07-02T23:25:33.569Z,56.18
2018-07-02T23:28:05.384Z,56.13
2018-07-02T23:30:34.977Z,57.04
2018-07-02T23:33:06.246Z,57.12
2018-07-02T23:35:37.061Z,57.59
2018-07-02T23:38:10.642Z,57.32
2018-07-02T23:40:42.817Z,55.00
2018-07-02T23:43:12.717Z,57.09
2018-07-02T23:45:45.283Z,56.46
2018-07-02T23:48:16.158Z,58.42
2018-07-02T23:50:50.395Z,58.21
2018-07-02T23:53:20.706Z,59.21
2018-07-02T23:55:52.268Z,58.75
2018-07-02T23:58:24.009Z,58.93
